sensor_id;sensor_type;location;lat;lon;timestamp;P1;durP1;ratioP1;P2;durP2;ratioP2
65896;SDS011;52677;50.898;10.854;2023-04-15T00:01:02;14.43;;;9.45;;
65896;SDS011;52677;50.898;10.854;2023-04-15T00:03:02;13.30;;;10.00;;
65896;SDS011;52677;50.898;10.854;2023-04-15T00:05:04;13.93;;;10.20;;
65896;SDS011;52677;50.898;10.854;2023-04-15T00:07:05;13.57;;;9.77;;
65896;SDS011;52677;50.898;10.854;2023-04-15T00:09:05;14.23;;;9.60;;
65896;SDS011;52677;50.898;10.854;2023-04-15T00:11:06;15.82;;;10.75;;
65896;SDS011;52677;50.898;10.854;2023-04-15T00:13:06;17.30;;;11.88;;
65896;SDS011;52677;50.898;10.854;2023-04-15T00:15:07;18.85;;;11.40;;
65896;SDS011;52677;50.898;10.854;2023-04-15T00:17:08;15.57;;;10.75;;
65896;SDS011;52677;50.898;10.854;2023-04-15T00:19:08;16.48;;;10.50;;
65896;SDS011;52677;50.898;10.854;2023-04-15T00:21:08;16.23;;;11.00;;
65896;SDS011;52677;50.898;10.854;2023-04-15T00:23:09;17.45;;;12.00;;
65896;SDS011;52677;50.898;10.854;2023-04-15T00:25:09;15.93;;;11.25;;
65896;SDS011;52677;50.898;10.854;2023-04-15T00:27:10;19.40;;;12.05;;
65896;SDS011;52677;50.898;10.854;2023-04-15T00:29:10;18.77;;;11.35;;
65896;SDS011;52677;50.898;10.854;2023-04-15T00:31:11;15.15;;;10.85;;
65896;SDS011;52677;50.898;10.854;2023-04-15T00:33:12;16.50;;;11.25;;
65896;SDS011;52677;50.898;10.854;2023-04-15T00:35:12;14.40;;;10.38;;
65896;SDS011;52677;50.898;10.854;2023-04-15T00:37:13;16.73;;;11.13;;
65896;SDS011;52677;50.898;10.854;2023-04-15T00:39:13;19.00;;;12.77;;
65896;SDS011;52677;50.898;10.854;2023-04-15T00:41:15;17.02;;;12.90;;
65896;SDS011;52677;50.898;10.854;2023-04-15T00:43:15;16.08;;;10.07;;
65896;SDS011;52677;50.898;10.854;2023-04-15T00:45:16;16.75;;;9.60;;
65896;SDS011;52677;50.898;10.854;2023-04-15T00:47:17;14.15;;;9.88;;
65896;SDS011;52677;50.898;10.854;2023-04-15T00:49:17;12.18;;;9.35;;
65896;SDS011;52677;50.898;10.854;2023-04-15T00:51:18;14.60;;;10.07;;
65896;SDS011;52677;50.898;10.854;2023-04-15T00:53:19;12.45;;;8.90;;
65896;SDS011;52677;50.898;10.854;2023-04-15T00:55:19;13.82;;;9.27;;
65896;SDS011;52677;50.898;10.854;2023-04-15T00:57:20;13.18;;;8.95;;
65896;SDS011;52677;50.898;10.854;2023-04-15T00:59:21;14.20;;;10.02;;
65896;SDS011;52677;50.898;10.854;2023-04-15T01:01:21;12.18;;;8.93;;
65896;SDS011;52677;50.898;10.854;2023-04-15T01:03:24;14.70;;;9.68;;
65896;SDS011;52677;50.898;10.854;2023-04-15T01:05:24;13.25;;;7.97;;
65896;SDS011;52677;50.898;10.854;2023-04-15T01:07:25;12.70;;;8.90;;
65896;SDS011;52677;50.898;10.854;2023-04-15T01:09:26;12.02;;;8.50;;
65896;SDS011;52677;50.898;10.854;2023-04-15T01:11:27;11.93;;;8.07;;
65896;SDS011;52677;50.898;10.854;2023-04-15T01:13:28;11.80;;;8.15;;
65896;SDS011;52677;50.898;10.854;2023-04-15T01:15:30;11.05;;;7.80;;
65896;SDS011;52677;50.898;10.854;2023-04-15T01:17:31;10.70;;;7.72;;
65896;SDS011;52677;50.898;10.854;2023-04-15T01:19:31;11.40;;;7.95;;
65896;SDS011;52677;50.898;10.854;2023-04-15T01:21:32;12.45;;;8.18;;
65896;SDS011;52677;50.898;10.854;2023-04-15T01:23:34;13.75;;;8.88;;
65896;SDS011;52677;50.898;10.854;2023-04-15T01:25:37;12.25;;;7.88;;
65896;SDS011;52677;50.898;10.854;2023-04-15T01:27:38;14.75;;;9.02;;
65896;SDS011;52677;50.898;10.854;2023-04-15T01:29:41;11.27;;;7.80;;
65896;SDS011;52677;50.898;10.854;2023-04-15T01:31:49;10.50;;;7.90;;
65896;SDS011;52677;50.898;10.854;2023-04-15T01:33:50;13.82;;;8.07;;
65896;SDS011;52677;50.898;10.854;2023-04-15T01:35:51;10.40;;;7.75;;
65896;SDS011;52677;50.898;10.854;2023-04-15T01:37:52;10.77;;;7.63;;
65896;SDS011;52677;50.898;10.854;2023-04-15T01:39:53;12.23;;;8.23;;
65896;SDS011;52677;50.898;10.854;2023-04-15T01:41:53;10.55;;;7.82;;
65896;SDS011;52677;50.898;10.854;2023-04-15T01:43:54;11.63;;;8.00;;
65896;SDS011;52677;50.898;10.854;2023-04-15T01:45:54;11.50;;;7.28;;
65896;SDS011;52677;50.898;10.854;2023-04-15T01:47:55;12.85;;;8.45;;
65896;SDS011;52677;50.898;10.854;2023-04-15T01:49:56;10.65;;;7.15;;
65896;SDS011;52677;50.898;10.854;2023-04-15T01:51:56;12.23;;;8.18;;
65896;SDS011;52677;50.898;10.854;2023-04-15T01:53:56;9.57;;;7.38;;
65896;SDS011;52677;50.898;10.854;2023-04-15T01:55:57;11.95;;;8.05;;
65896;SDS011;52677;50.898;10.854;2023-04-15T01:57:57;12.73;;;8.07;;
65896;SDS011;52677;50.898;10.854;2023-04-15T01:59:57;11.63;;;7.43;;
65896;SDS011;52677;50.898;10.854;2023-04-15T02:01:58;13.07;;;9.27;;
65896;SDS011;52677;50.898;10.854;2023-04-15T02:03:58;12.07;;;7.97;;
65896;SDS011;52677;50.898;10.854;2023-04-15T02:05:59;12.27;;;7.93;;
65896;SDS011;52677;50.898;10.854;2023-04-15T02:07:59;11.02;;;7.10;;
65896;SDS011;52677;50.898;10.854;2023-04-15T02:10:00;11.88;;;8.52;;
65896;SDS011;52677;50.898;10.854;2023-04-15T02:12:00;13.60;;;8.00;;
65896;SDS011;52677;50.898;10.854;2023-04-15T02:14:01;11.50;;;7.70;;
65896;SDS011;52677;50.898;10.854;2023-04-15T02:16:01;14.85;;;7.97;;
65896;SDS011;52677;50.898;10.854;2023-04-15T02:18:03;11.02;;;7.70;;
65896;SDS011;52677;50.898;10.854;2023-04-15T02:20:03;11.30;;;7.28;;
65896;SDS011;52677;50.898;10.854;2023-04-15T02:22:05;11.23;;;7.45;;
65896;SDS011;52677;50.898;10.854;2023-04-15T02:24:06;12.70;;;8.27;;
65896;SDS011;52677;50.898;10.854;2023-04-15T02:26:06;12.05;;;7.97;;
65896;SDS011;52677;50.898;10.854;2023-04-15T02:28:07;12.38;;;8.23;;
65896;SDS011;52677;50.898;10.854;2023-04-15T02:30:07;13.75;;;8.60;;
65896;SDS011;52677;50.898;10.854;2023-04-15T02:32:08;12.13;;;8.15;;
65896;SDS011;52677;50.898;10.854;2023-04-15T02:34:08;11.95;;;7.93;;
65896;SDS011;52677;50.898;10.854;2023-04-15T02:36:09;10.65;;;7.50;;
65896;SDS011;52677;50.898;10.854;2023-04-15T02:38:11;13.43;;;8.93;;
65896;SDS011;52677;50.898;10.854;2023-04-15T02:40:13;11.20;;;7.80;;
65896;SDS011;52677;50.898;10.854;2023-04-15T02:42:13;13.50;;;9.00;;
65896;SDS011;52677;50.898;10.854;2023-04-15T02:44:13;11.63;;;8.10;;
65896;SDS011;52677;50.898;10.854;2023-04-15T02:46:14;10.88;;;7.82;;
65896;SDS011;52677;50.898;10.854;2023-04-15T02:48:15;13.93;;;9.15;;
65896;SDS011;52677;50.898;10.854;2023-04-15T02:50:17;12.90;;;9.18;;
65896;SDS011;52677;50.898;10.854;2023-04-15T02:52:18;13.63;;;8.98;;
65896;SDS011;52677;50.898;10.854;2023-04-15T02:54:19;14.18;;;8.35;;
65896;SDS011;52677;50.898;10.854;2023-04-15T02:56:20;11.57;;;8.15;;
65896;SDS011;52677;50.898;10.854;2023-04-15T02:58:22;12.18;;;8.60;;
65896;SDS011;52677;50.898;10.854;2023-04-15T03:00:22;13.82;;;8.65;;
65896;SDS011;52677;50.898;10.854;2023-04-15T03:02:24;12.57;;;8.83;;
65896;SDS011;52677;50.898;10.854;2023-04-15T03:04:24;13.50;;;9.05;;
65896;SDS011;52677;50.898;10.854;2023-04-15T03:06:25;16.27;;;9.10;;
65896;SDS011;52677;50.898;10.854;2023-04-15T03:08:26;14.77;;;9.35;;
65896;SDS011;52677;50.898;10.854;2023-04-15T03:10:26;13.90;;;9.43;;
65896;SDS011;52677;50.898;10.854;2023-04-15T03:12:26;13.65;;;8.90;;
65896;SDS011;52677;50.898;10.854;2023-04-15T03:14:27;14.98;;;10.15;;
65896;SDS011;52677;50.898;10.854;2023-04-15T03:16:27;15.32;;;9.23;;
65896;SDS011;52677;50.898;10.854;2023-04-15T03:18:28;14.57;;;10.05;;
65896;SDS011;52677;50.898;10.854;2023-04-15T03:20:28;14.90;;;9.90;;
65896;SDS011;52677;50.898;10.854;2023-04-15T03:22:28;16.33;;;10.20;;
65896;SDS011;52677;50.898;10.854;2023-04-15T03:24:29;13.63;;;9.63;;
65896;SDS011;52677;50.898;10.854;2023-04-15T03:26:29;15.82;;;10.35;;
65896;SDS011;52677;50.898;10.854;2023-04-15T03:28:30;14.55;;;10.18;;
65896;SDS011;52677;50.898;10.854;2023-04-15T03:30:31;15.98;;;9.93;;
65896;SDS011;52677;50.898;10.854;2023-04-15T03:32:32;15.73;;;9.27;;
65896;SDS011;52677;50.898;10.854;2023-04-15T03:34:32;13.93;;;9.18;;
65896;SDS011;52677;50.898;10.854;2023-04-15T03:36:32;14.10;;;8.90;;
65896;SDS011;52677;50.898;10.854;2023-04-15T03:38:33;15.43;;;10.05;;
65896;SDS011;52677;50.898;10.854;2023-04-15T03:40:33;16.65;;;10.15;;
65896;SDS011;52677;50.898;10.854;2023-04-15T03:42:33;17.00;;;11.07;;
65896;SDS011;52677;50.898;10.854;2023-04-15T03:44:34;14.70;;;9.93;;
65896;SDS011;52677;50.898;10.854;2023-04-15T03:46:34;18.55;;;10.88;;
65896;SDS011;52677;50.898;10.854;2023-04-15T03:48:34;17.48;;;11.32;;
65896;SDS011;52677;50.898;10.854;2023-04-15T03:50:35;15.25;;;10.05;;
65896;SDS011;52677;50.898;10.854;2023-04-15T03:52:35;15.27;;;10.38;;
65896;SDS011;52677;50.898;10.854;2023-04-15T03:54:35;17.05;;;10.52;;
65896;SDS011;52677;50.898;10.854;2023-04-15T03:56:36;20.38;;;11.95;;
65896;SDS011;52677;50.898;10.854;2023-04-15T03:58:36;20.98;;;11.40;;
65896;SDS011;52677;50.898;10.854;2023-04-15T04:00:36;19.98;;;11.60;;
65896;SDS011;52677;50.898;10.854;2023-04-15T04:02:37;18.60;;;11.07;;
65896;SDS011;52677;50.898;10.854;2023-04-15T04:04:38;21.27;;;12.35;;
65896;SDS011;52677;50.898;10.854;2023-04-15T04:06:38;19.25;;;10.95;;
65896;SDS011;52677;50.898;10.854;2023-04-15T04:08:38;19.88;;;10.93;;
65896;SDS011;52677;50.898;10.854;2023-04-15T04:10:39;21.33;;;11.13;;
65896;SDS011;52677;50.898;10.854;2023-04-15T04:12:39;21.63;;;11.55;;
65896;SDS011;52677;50.898;10.854;2023-04-15T04:14:40;22.70;;;11.10;;
65896;SDS011;52677;50.898;10.854;2023-04-15T04:16:40;18.30;;;10.88;;
65896;SDS011;52677;50.898;10.854;2023-04-15T04:18:41;17.27;;;10.95;;
65896;SDS011;52677;50.898;10.854;2023-04-15T04:20:41;16.77;;;10.10;;
65896;SDS011;52677;50.898;10.854;2023-04-15T04:22:41;18.45;;;10.55;;
65896;SDS011;52677;50.898;10.854;2023-04-15T04:24:42;20.98;;;10.55;;
65896;SDS011;52677;50.898;10.854;2023-04-15T04:26:42;17.00;;;10.82;;
65896;SDS011;52677;50.898;10.854;2023-04-15T04:28:42;15.13;;;9.27;;
65896;SDS011;52677;50.898;10.854;2023-04-15T04:30:42;16.77;;;10.07;;
65896;SDS011;52677;50.898;10.854;2023-04-15T04:32:43;14.65;;;9.15;;
65896;SDS011;52677;50.898;10.854;2023-04-15T04:34:43;14.45;;;9.23;;
65896;SDS011;52677;50.898;10.854;2023-04-15T04:36:43;16.90;;;10.05;;
65896;SDS011;52677;50.898;10.854;2023-04-15T04:38:44;15.73;;;9.63;;
65896;SDS011;52677;50.898;10.854;2023-04-15T04:40:44;18.70;;;9.98;;
65896;SDS011;52677;50.898;10.854;2023-04-15T04:42:44;18.95;;;10.23;;
65896;SDS011;52677;50.898;10.854;2023-04-15T04:44:45;17.38;;;10.07;;
65896;SDS011;52677;50.898;10.854;2023-04-15T04:46:46;18.65;;;11.40;;
65896;SDS011;52677;50.898;10.854;2023-04-15T04:48:46;20.33;;;13.38;;
65896;SDS011;52677;50.898;10.854;2023-04-15T04:50:46;22.30;;;14.15;;
65896;SDS011;52677;50.898;10.854;2023-04-15T04:52:47;26.42;;;14.02;;
65896;SDS011;52677;50.898;10.854;2023-04-15T04:54:47;27.05;;;14.95;;
65896;SDS011;52677;50.898;10.854;2023-04-15T04:56:48;38.63;;;18.92;;
65896;SDS011;52677;50.898;10.854;2023-04-15T04:58:48;40.15;;;20.23;;
65896;SDS011;52677;50.898;10.854;2023-04-15T05:00:48;37.65;;;17.70;;
65896;SDS011;52677;50.898;10.854;2023-04-15T05:02:49;25.30;;;14.85;;
65896;SDS011;52677;50.898;10.854;2023-04-15T05:04:49;24.95;;;13.45;;
65896;SDS011;52677;50.898;10.854;2023-04-15T05:06:53;21.67;;;12.48;;
65896;SDS011;52677;50.898;10.854;2023-04-15T05:08:53;20.02;;;11.52;;
65896;SDS011;52677;50.898;10.854;2023-04-15T05:10:53;19.90;;;11.48;;
65896;SDS011;52677;50.898;10.854;2023-04-15T05:12:54;19.95;;;10.77;;
65896;SDS011;52677;50.898;10.854;2023-04-15T05:14:54;19.25;;;10.45;;
65896;SDS011;52677;50.898;10.854;2023-04-15T05:16:55;17.30;;;10.48;;
65896;SDS011;52677;50.898;10.854;2023-04-15T05:18:55;14.60;;;9.55;;
65896;SDS011;52677;50.898;10.854;2023-04-15T05:20:56;15.05;;;9.18;;
65896;SDS011;52677;50.898;10.854;2023-04-15T05:22:56;13.43;;;9.23;;
65896;SDS011;52677;50.898;10.854;2023-04-15T05:24:57;12.98;;;8.10;;
65896;SDS011;52677;50.898;10.854;2023-04-15T05:26:57;13.20;;;7.95;;
65896;SDS011;52677;50.898;10.854;2023-04-15T05:28:57;15.18;;;9.23;;
65896;SDS011;52677;50.898;10.854;2023-04-15T05:30:57;13.02;;;8.63;;
65896;SDS011;52677;50.898;10.854;2023-04-15T05:32:58;14.55;;;8.38;;
65896;SDS011;52677;50.898;10.854;2023-04-15T05:34:58;11.95;;;7.68;;
65896;SDS011;52677;50.898;10.854;2023-04-15T05:36:59;14.63;;;8.27;;
65896;SDS011;52677;50.898;10.854;2023-04-15T05:38:59;13.30;;;8.05;;
65896;SDS011;52677;50.898;10.854;2023-04-15T05:41:00;12.77;;;7.75;;
65896;SDS011;52677;50.898;10.854;2023-04-15T05:43:00;11.75;;;7.38;;
65896;SDS011;52677;50.898;10.854;2023-04-15T05:45:01;12.75;;;7.93;;
65896;SDS011;52677;50.898;10.854;2023-04-15T05:47:04;11.57;;;7.57;;
65896;SDS011;52677;50.898;10.854;2023-04-15T05:49:06;13.10;;;7.97;;
65896;SDS011;52677;50.898;10.854;2023-04-15T05:51:06;10.18;;;6.88;;
65896;SDS011;52677;50.898;10.854;2023-04-15T05:53:07;11.73;;;7.22;;
65896;SDS011;52677;50.898;10.854;2023-04-15T05:55:08;10.18;;;7.10;;
65896;SDS011;52677;50.898;10.854;2023-04-15T05:57:08;11.07;;;6.97;;
65896;SDS011;52677;50.898;10.854;2023-04-15T05:59:09;11.25;;;7.07;;
65896;SDS011;52677;50.898;10.854;2023-04-15T06:01:09;11.90;;;7.47;;
65896;SDS011;52677;50.898;10.854;2023-04-15T06:03:09;14.02;;;7.85;;
65896;SDS011;52677;50.898;10.854;2023-04-15T06:05:10;11.05;;;7.28;;
65896;SDS011;52677;50.898;10.854;2023-04-15T06:07:12;10.75;;;7.00;;
65896;SDS011;52677;50.898;10.854;2023-04-15T06:09:12;12.15;;;7.40;;
65896;SDS011;52677;50.898;10.854;2023-04-15T06:11:12;12.13;;;8.13;;
65896;SDS011;52677;50.898;10.854;2023-04-15T06:13:13;10.88;;;6.90;;
65896;SDS011;52677;50.898;10.854;2023-04-15T06:15:13;11.82;;;6.82;;
65896;SDS011;52677;50.898;10.854;2023-04-15T06:17:13;9.57;;;6.13;;
65896;SDS011;52677;50.898;10.854;2023-04-15T06:19:14;11.40;;;6.28;;
65896;SDS011;52677;50.898;10.854;2023-04-15T06:21:14;11.65;;;7.05;;
65896;SDS011;52677;50.898;10.854;2023-04-15T06:23:15;10.27;;;7.03;;
65896;SDS011;52677;50.898;10.854;2023-04-15T06:25:15;10.15;;;6.40;;
65896;SDS011;52677;50.898;10.854;2023-04-15T06:27:17;13.25;;;7.00;;
65896;SDS011;52677;50.898;10.854;2023-04-15T06:29:17;12.23;;;7.40;;
65896;SDS011;52677;50.898;10.854;2023-04-15T06:31:18;10.90;;;6.40;;
65896;SDS011;52677;50.898;10.854;2023-04-15T06:33:18;10.05;;;6.35;;
65896;SDS011;52677;50.898;10.854;2023-04-15T06:35:18;9.13;;;6.32;;
65896;SDS011;52677;50.898;10.854;2023-04-15T06:37:19;10.75;;;6.85;;
65896;SDS011;52677;50.898;10.854;2023-04-15T06:39:19;10.85;;;7.00;;
65896;SDS011;52677;50.898;10.854;2023-04-15T06:41:20;12.00;;;7.47;;
65896;SDS011;52677;50.898;10.854;2023-04-15T06:43:20;31.65;;;15.80;;
65896;SDS011;52677;50.898;10.854;2023-04-15T06:45:20;13.75;;;8.57;;
65896;SDS011;52677;50.898;10.854;2023-04-15T06:47:21;11.73;;;7.90;;
65896;SDS011;52677;50.898;10.854;2023-04-15T06:49:21;15.65;;;8.68;;
65896;SDS011;52677;50.898;10.854;2023-04-15T06:51:21;12.63;;;7.15;;
65896;SDS011;52677;50.898;10.854;2023-04-15T06:53:24;22.02;;;10.75;;
65896;SDS011;52677;50.898;10.854;2023-04-15T06:55:26;16.33;;;7.60;;
65896;SDS011;52677;50.898;10.854;2023-04-15T06:57:27;13.20;;;7.80;;
65896;SDS011;52677;50.898;10.854;2023-04-15T06:59:27;11.95;;;6.55;;
65896;SDS011;52677;50.898;10.854;2023-04-15T07:01:28;14.77;;;8.02;;
65896;SDS011;52677;50.898;10.854;2023-04-15T07:03:28;12.65;;;7.13;;
65896;SDS011;52677;50.898;10.854;2023-04-15T07:05:29;10.90;;;6.85;;
65896;SDS011;52677;50.898;10.854;2023-04-15T07:07:30;10.60;;;6.43;;
65896;SDS011;52677;50.898;10.854;2023-04-15T07:09:30;11.00;;;6.55;;
65896;SDS011;52677;50.898;10.854;2023-04-15T07:11:31;9.73;;;6.18;;
65896;SDS011;52677;50.898;10.854;2023-04-15T07:13:32;9.85;;;6.40;;
65896;SDS011;52677;50.898;10.854;2023-04-15T07:15:33;8.93;;;5.65;;
65896;SDS011;52677;50.898;10.854;2023-04-15T07:17:33;9.55;;;6.10;;
65896;SDS011;52677;50.898;10.854;2023-04-15T07:19:34;9.60;;;6.05;;
65896;SDS011;52677;50.898;10.854;2023-04-15T07:21:34;12.50;;;7.22;;
65896;SDS011;52677;50.898;10.854;2023-04-15T07:23:35;9.93;;;5.97;;
65896;SDS011;52677;50.898;10.854;2023-04-15T07:25:35;10.85;;;5.93;;
65896;SDS011;52677;50.898;10.854;2023-04-15T07:27:35;9.55;;;6.03;;
65896;SDS011;52677;50.898;10.854;2023-04-15T07:29:36;9.38;;;5.55;;
65896;SDS011;52677;50.898;10.854;2023-04-15T07:31:36;9.38;;;5.78;;
65896;SDS011;52677;50.898;10.854;2023-04-15T07:33:36;9.05;;;5.47;;
65896;SDS011;52677;50.898;10.854;2023-04-15T07:35:37;9.57;;;5.35;;
65896;SDS011;52677;50.898;10.854;2023-04-15T07:37:37;8.27;;;5.05;;
65896;SDS011;52677;50.898;10.854;2023-04-15T07:39:37;8.60;;;5.25;;
65896;SDS011;52677;50.898;10.854;2023-04-15T07:41:38;10.57;;;5.38;;
65896;SDS011;52677;50.898;10.854;2023-04-15T07:43:38;9.25;;;5.35;;
65896;SDS011;52677;50.898;10.854;2023-04-15T07:45:38;11.07;;;6.85;;
65896;SDS011;52677;50.898;10.854;2023-04-15T07:47:39;9.98;;;5.65;;
65896;SDS011;52677;50.898;10.854;2023-04-15T07:49:41;9.32;;;5.68;;
65896;SDS011;52677;50.898;10.854;2023-04-15T07:51:42;26.58;;;8.02;;
65896;SDS011;52677;50.898;10.854;2023-04-15T07:53:43;10.50;;;6.45;;
65896;SDS011;52677;50.898;10.854;2023-04-15T07:55:44;8.52;;;5.55;;
65896;SDS011;52677;50.898;10.854;2023-04-15T07:57:44;9.68;;;5.97;;
65896;SDS011;52677;50.898;10.854;2023-04-15T07:59:46;8.97;;;5.73;;
65896;SDS011;52677;50.898;10.854;2023-04-15T08:01:46;7.78;;;5.20;;
65896;SDS011;52677;50.898;10.854;2023-04-15T08:03:47;6.53;;;4.53;;
65896;SDS011;52677;50.898;10.854;2023-04-15T08:05:47;8.45;;;4.70;;
65896;SDS011;52677;50.898;10.854;2023-04-15T08:07:48;10.27;;;4.85;;
65896;SDS011;52677;50.898;10.854;2023-04-15T08:09:48;14.73;;;5.82;;
65896;SDS011;52677;50.898;10.854;2023-04-15T08:11:48;8.02;;;4.50;;
65896;SDS011;52677;50.898;10.854;2023-04-15T08:13:50;7.07;;;4.60;;
65896;SDS011;52677;50.898;10.854;2023-04-15T08:15:55;11.02;;;5.38;;
65896;SDS011;52677;50.898;10.854;2023-04-15T08:18:24;16.63;;;5.50;;
65896;SDS011;52677;50.898;10.854;2023-04-15T08:20:24;8.90;;;4.20;;
65896;SDS011;52677;50.898;10.854;2023-04-15T08:22:25;8.45;;;4.80;;
65896;SDS011;52677;50.898;10.854;2023-04-15T08:24:25;7.72;;;4.10;;
65896;SDS011;52677;50.898;10.854;2023-04-15T08:26:26;8.05;;;4.70;;
65896;SDS011;52677;50.898;10.854;2023-04-15T08:28:26;8.90;;;5.63;;
65896;SDS011;52677;50.898;10.854;2023-04-15T08:30:26;13.93;;;7.32;;
65896;SDS011;52677;50.898;10.854;2023-04-15T08:32:27;8.93;;;5.53;;
65896;SDS011;52677;50.898;10.854;2023-04-15T08:34:28;15.10;;;7.53;;
65896;SDS011;52677;50.898;10.854;2023-04-15T08:36:28;16.08;;;8.48;;
65896;SDS011;52677;50.898;10.854;2023-04-15T08:38:29;19.85;;;9.05;;
65896;SDS011;52677;50.898;10.854;2023-04-15T08:40:32;14.75;;;6.93;;
65896;SDS011;52677;50.898;10.854;2023-04-15T08:42:43;42.65;;;17.23;;
65896;SDS011;52677;50.898;10.854;2023-04-15T08:44:47;41.20;;;15.45;;
65896;SDS011;52677;50.898;10.854;2023-04-15T08:46:48;10.23;;;5.30;;
65896;SDS011;52677;50.898;10.854;2023-04-15T08:48:50;17.65;;;9.35;;
65896;SDS011;52677;50.898;10.854;2023-04-15T08:50:55;10.68;;;5.88;;
65896;SDS011;52677;50.898;10.854;2023-04-15T08:52:56;11.63;;;6.20;;
65896;SDS011;52677;50.898;10.854;2023-04-15T08:54:58;16.55;;;8.95;;
65896;SDS011;52677;50.898;10.854;2023-04-15T08:57:00;11.85;;;6.53;;
65896;SDS011;52677;50.898;10.854;2023-04-15T08:59:04;11.73;;;7.50;;
65896;SDS011;52677;50.898;10.854;2023-04-15T09:01:05;14.27;;;8.20;;
65896;SDS011;52677;50.898;10.854;2023-04-15T09:03:06;8.98;;;5.35;;
65896;SDS011;52677;50.898;10.854;2023-04-15T09:05:07;8.95;;;5.28;;
65896;SDS011;52677;50.898;10.854;2023-04-15T09:07:08;13.85;;;7.45;;
65896;SDS011;52677;50.898;10.854;2023-04-15T09:09:08;6.80;;;4.88;;
65896;SDS011;52677;50.898;10.854;2023-04-15T09:11:09;4.30;;;3.13;;
65896;SDS011;52677;50.898;10.854;2023-04-15T09:13:10;6.38;;;3.70;;
65896;SDS011;52677;50.898;10.854;2023-04-15T09:15:11;6.47;;;3.95;;
65896;SDS011;52677;50.898;10.854;2023-04-15T09:17:11;7.75;;;4.50;;
65896;SDS011;52677;50.898;10.854;2023-04-15T09:19:22;5.40;;;3.92;;
65896;SDS011;52677;50.898;10.854;2023-04-15T09:21:23;6.85;;;3.60;;
65896;SDS011;52677;50.898;10.854;2023-04-15T09:23:23;6.78;;;3.88;;
65896;SDS011;52677;50.898;10.854;2023-04-15T09:25:24;6.03;;;3.72;;
65896;SDS011;52677;50.898;10.854;2023-04-15T09:27:28;5.13;;;3.53;;
65896;SDS011;52677;50.898;10.854;2023-04-15T09:29:28;5.78;;;3.92;;
65896;SDS011;52677;50.898;10.854;2023-04-15T09:31:29;7.38;;;4.60;;
65896;SDS011;52677;50.898;10.854;2023-04-15T09:33:30;6.22;;;3.30;;
65896;SDS011;52677;50.898;10.854;2023-04-15T09:35:30;6.78;;;4.32;;
65896;SDS011;52677;50.898;10.854;2023-04-15T09:37:34;5.22;;;3.42;;
65896;SDS011;52677;50.898;10.854;2023-04-15T09:39:48;8.73;;;5.00;;
65896;SDS011;52677;50.898;10.854;2023-04-15T09:42:03;6.10;;;4.15;;
65896;SDS011;52677;50.898;10.854;2023-04-15T09:44:06;7.38;;;4.50;;
65896;SDS011;52677;50.898;10.854;2023-04-15T09:46:39;7.15;;;4.18;;
65896;SDS011;52677;50.898;10.854;2023-04-15T09:48:43;7.93;;;5.20;;
65896;SDS011;52677;50.898;10.854;2023-04-15T09:50:43;8.60;;;4.82;;
65896;SDS011;52677;50.898;10.854;2023-04-15T09:52:44;6.75;;;4.43;;
65896;SDS011;52677;50.898;10.854;2023-04-15T09:54:45;9.00;;;4.28;;
65896;SDS011;52677;50.898;10.854;2023-04-15T09:56:45;10.63;;;6.18;;
65896;SDS011;52677;50.898;10.854;2023-04-15T09:58:54;7.80;;;4.53;;
65896;SDS011;52677;50.898;10.854;2023-04-15T10:00:56;7.60;;;4.90;;
65896;SDS011;52677;50.898;10.854;2023-04-15T10:02:57;7.13;;;4.28;;
65896;SDS011;52677;50.898;10.854;2023-04-15T10:04:58;9.13;;;5.00;;
65896;SDS011;52677;50.898;10.854;2023-04-15T10:06:59;15.75;;;5.30;;
65896;SDS011;52677;50.898;10.854;2023-04-15T10:08:59;21.60;;;9.63;;
65896;SDS011;52677;50.898;10.854;2023-04-15T10:11:01;7.28;;;4.80;;
65896;SDS011;52677;50.898;10.854;2023-04-15T10:13:02;9.25;;;5.65;;
65896;SDS011;52677;50.898;10.854;2023-04-15T10:15:03;8.00;;;4.38;;
65896;SDS011;52677;50.898;10.854;2023-04-15T10:17:04;6.32;;;4.53;;
65896;SDS011;52677;50.898;10.854;2023-04-15T10:19:06;8.57;;;5.95;;
65896;SDS011;52677;50.898;10.854;2023-04-15T10:21:08;10.52;;;6.80;;
65896;SDS011;52677;50.898;10.854;2023-04-15T10:23:09;9.48;;;6.43;;
65896;SDS011;52677;50.898;10.854;2023-04-15T10:25:11;6.70;;;4.72;;
65896;SDS011;52677;50.898;10.854;2023-04-15T10:27:11;7.32;;;4.88;;
65896;SDS011;52677;50.898;10.854;2023-04-15T10:29:13;8.23;;;5.25;;
65896;SDS011;52677;50.898;10.854;2023-04-15T10:31:13;5.90;;;4.32;;
65896;SDS011;52677;50.898;10.854;2023-04-15T10:33:15;8.77;;;5.13;;
65896;SDS011;52677;50.898;10.854;2023-04-15T10:35:17;6.47;;;4.50;;
65896;SDS011;52677;50.898;10.854;2023-04-15T10:37:21;8.93;;;5.22;;
65896;SDS011;52677;50.898;10.854;2023-04-15T10:41:41;7.93;;;5.00;;
65896;SDS011;52677;50.898;10.854;2023-04-15T10:43:48;9.57;;;5.43;;
65896;SDS011;52677;50.898;10.854;2023-04-15T10:45:58;7.28;;;4.05;;
65896;SDS011;52677;50.898;10.854;2023-04-15T10:48:00;6.97;;;4.20;;
65896;SDS011;52677;50.898;10.854;2023-04-15T10:50:02;6.05;;;3.97;;
65896;SDS011;52677;50.898;10.854;2023-04-15T10:52:02;6.63;;;3.83;;
65896;SDS011;52677;50.898;10.854;2023-04-15T10:54:03;6.45;;;3.67;;
65896;SDS011;52677;50.898;10.854;2023-04-15T10:56:09;6.22;;;3.70;;
65896;SDS011;52677;50.898;10.854;2023-04-15T10:58:09;5.60;;;3.80;;
65896;SDS011;52677;50.898;10.854;2023-04-15T11:00:10;6.78;;;3.92;;
65896;SDS011;52677;50.898;10.854;2023-04-15T11:02:11;6.53;;;4.07;;
65896;SDS011;52677;50.898;10.854;2023-04-15T11:04:13;5.68;;;3.60;;
65896;SDS011;52677;50.898;10.854;2023-04-15T11:06:13;4.22;;;3.05;;
65896;SDS011;52677;50.898;10.854;2023-04-15T11:08:14;6.28;;;3.50;;
65896;SDS011;52677;50.898;10.854;2023-04-15T11:12:32;6.97;;;3.97;;
65896;SDS011;52677;50.898;10.854;2023-04-15T11:14:38;9.57;;;6.00;;
65896;SDS011;52677;50.898;10.854;2023-04-15T11:16:43;8.00;;;4.55;;
65896;SDS011;52677;50.898;10.854;2023-04-15T11:18:56;5.78;;;3.50;;
65896;SDS011;52677;50.898;10.854;2023-04-15T11:22:58;4.07;;;2.58;;
65896;SDS011;52677;50.898;10.854;2023-04-15T11:24:58;4.88;;;3.47;;
65896;SDS011;52677;50.898;10.854;2023-04-15T11:27:00;4.25;;;3.17;;
65896;SDS011;52677;50.898;10.854;2023-04-15T11:29:01;4.93;;;3.13;;
65896;SDS011;52677;50.898;10.854;2023-04-15T11:31:08;7.00;;;3.38;;
65896;SDS011;52677;50.898;10.854;2023-04-15T11:33:12;6.75;;;3.70;;
65896;SDS011;52677;50.898;10.854;2023-04-15T11:35:13;8.07;;;4.10;;
65896;SDS011;52677;50.898;10.854;2023-04-15T11:37:13;4.55;;;3.13;;
65896;SDS011;52677;50.898;10.854;2023-04-15T11:39:13;4.03;;;3.05;;
65896;SDS011;52677;50.898;10.854;2023-04-15T11:41:18;6.47;;;3.27;;
65896;SDS011;52677;50.898;10.854;2023-04-15T11:43:20;7.93;;;4.68;;
65896;SDS011;52677;50.898;10.854;2023-04-15T11:45:22;5.85;;;3.78;;
65896;SDS011;52677;50.898;10.854;2023-04-15T11:47:22;5.25;;;3.10;;
65896;SDS011;52677;50.898;10.854;2023-04-15T11:49:29;4.28;;;3.03;;
65896;SDS011;52677;50.898;10.854;2023-04-15T11:51:33;4.72;;;3.30;;
65896;SDS011;52677;50.898;10.854;2023-04-15T11:55:48;4.07;;;3.15;;
65896;SDS011;52677;50.898;10.854;2023-04-15T11:58:04;5.95;;;3.47;;
65896;SDS011;52677;50.898;10.854;2023-04-15T12:00:07;5.03;;;3.30;;